Weather at Copenhagen Kastrup Airport

Public forecast

Using degrees Celsius for public forecast. Weather courtesy of forecast.io.

Current aviation weather report (METAR) for Copenhagen Kastrup Airport

Retrieved 2021/10/26 08:31 UTC (0 seconds ago):

EKCH 260831Z 25013KT 9999 FEW013 BKN067 11/10 Q1014 TEMPO FEW020CB

Aviation forecast (TAF) for Copenhagen Kastrup Airport

Retrieved 2021/10/26 06:30 UTC (2 hours ago):

TAF EKCH 260505Z 2606/2706 23010KT 8000 BKN020 TEMPO 2606/2610 4000 RA BKN008 SCT020CB TEMPO 2700/2706 3000 RADZ BR BKN008